createdAt,value
2022-08-18T00:02:38.794Z,6.57
2022-08-18T00:07:47.024Z,7.30
2022-08-18T00:12:48.898Z,6.60
2022-08-18T00:17:50.859Z,8.83
2022-08-18T00:22:53.222Z,6.60
2022-08-18T00:27:54.863Z,6.77
2022-08-18T00:32:57.898Z,6.70
2022-08-18T00:38:01.234Z,7.10
2022-08-18T00:43:05.127Z,6.43
2022-08-18T00:48:08.792Z,7.00
2022-08-18T00:53:33.249Z,6.77
2022-08-18T00:59:07.190Z,7.17
2022-08-18T01:04:16.134Z,8.47
2022-08-18T01:09:18.007Z,8.30
2022-08-18T01:14:19.807Z,7.97
2022-08-18T01:19:41.665Z,6.97
2022-08-18T01:25:01.803Z,6.90
2022-08-18T01:30:10.050Z,7.40
2022-08-18T01:35:13.956Z,7.07
2022-08-18T01:41:21.973Z,7.70
2022-08-18T01:45:42.161Z,7.63
2022-08-18T01:50:45.549Z,6.83
2022-08-18T01:55:47.030Z,7.33
2022-08-18T02:00:48.671Z,7.30
2022-08-18T02:05:51.923Z,9.43
2022-08-18T02:10:54.025Z,8.00
2022-08-18T02:15:55.574Z,8.13
2022-08-18T02:20:58.871Z,8.13
2022-08-18T02:26:04.891Z,7.50
2022-08-18T02:31:11.426Z,7.17
2022-08-18T02:36:13.412Z,8.27
2022-08-18T02:41:15.052Z,8.03
2022-08-18T02:46:16.712Z,8.17
2022-08-18T02:51:18.318Z,8.47
2022-08-18T02:56:40.612Z,10.07
2022-08-18T03:01:45.734Z,8.77
2022-08-18T03:06:47.971Z,8.60
2022-08-18T03:11:49.741Z,8.53
2022-08-18T03:16:54.047Z,9.10
2022-08-18T03:21:59.393Z,8.67
2022-08-18T03:27:06.209Z,8.73
2022-08-18T03:32:08.611Z,8.93
2022-08-18T03:37:10.410Z,9.23
2022-08-18T03:42:11.898Z,10.40
2022-08-18T03:47:13.438Z,8.83
2022-08-18T03:52:15.113Z,8.93
2022-08-18T03:57:16.644Z,9.10
2022-08-18T04:02:18.470Z,10.03
2022-08-18T04:07:20.133Z,11.70
2022-08-18T04:12:21.718Z,14.00
2022-08-18T04:17:25.939Z,13.80
2022-08-18T04:22:27.669Z,12.30
2022-08-18T04:27:29.959Z,11.27
2022-08-18T04:32:31.953Z,13.13
2022-08-18T04:37:39.487Z,13.20
2022-08-18T04:42:44.780Z,10.47
2022-08-18T04:47:46.414Z,11.37
2022-08-18T04:53:06.581Z,14.83
2022-08-18T04:58:08.135Z,9.93
2022-08-18T05:03:10.505Z,10.03
2022-08-18T05:08:12.403Z,10.93
2022-08-18T05:13:17.742Z,13.83
2022-08-18T05:18:24.279Z,11.67
2022-08-18T05:23:29.698Z,10.83
2022-08-18T05:28:31.934Z,11.30
2022-08-18T05:33:33.608Z,10.83
2022-08-18T05:38:44.493Z,11.63
2022-08-18T05:43:52.100Z,11.33
2022-08-18T05:48:54.019Z,14.00
2022-08-18T05:54:14.477Z,18.10
2022-08-18T05:59:42.944Z,19.00
2022-08-18T06:04:51.898Z,18.13
2022-08-18T06:09:54.957Z,22.23
2022-08-18T06:15:06.351Z,25.13
2022-08-18T06:20:42.204Z,21.97
2022-08-18T06:26:04.109Z,26.37
2022-08-18T06:31:16.942Z,26.93
2022-08-18T06:36:45.645Z,34.23
2022-08-18T06:41:49.546Z,34.67
2022-08-18T06:47:04.139Z,37.97
2022-08-18T06:52:39.119Z,41.07
2022-08-18T06:57:57.684Z,44.73
2022-08-18T07:03:01.904Z,50.50
2022-08-18T07:08:10.376Z,48.63
2022-08-18T07:13:19.102Z,50.50
2022-08-18T07:18:26.450Z,50.23
2022-08-18T07:23:34.470Z,49.27
2022-08-18T07:28:47.718Z,51.10
2022-08-18T07:34:14.624Z,47.53
2022-08-18T07:39:22.288Z,42.03
2022-08-18T07:44:28.408Z,37.93
2022-08-18T07:49:35.576Z,36.47
2022-08-18T07:54:49.797Z,42.67
2022-08-18T08:00:04.225Z,43.30
2022-08-18T08:05:38.108Z,40.17
2022-08-18T08:11:01.078Z,40.60
2022-08-18T08:16:14.731Z,46.07
2022-08-18T08:21:19.436Z,40.50
2022-08-18T08:26:31.847Z,43.20
2022-08-18T08:31:54.274Z,43.90
2022-08-18T08:37:04.485Z,42.60
2022-08-18T08:42:30.626Z,46.03
2022-08-18T08:47:45.374Z,41.13
2022-08-18T08:52:56.990Z,42.43
2022-08-18T08:58:07.936Z,37.53
2022-08-18T09:03:30.657Z,37.23
2022-08-18T09:09:07.776Z,38.00
2022-08-18T09:14:29.523Z,32.90
2022-08-18T09:19:35.896Z,34.10
2022-08-18T09:24:56.130Z,31.90
2022-08-18T09:29:59.761Z,34.37
2022-08-18T09:35:23.495Z,30.73
2022-08-18T09:41:02.288Z,37.00
2022-08-18T09:46:06.905Z,39.57
2022-08-18T09:51:23.384Z,30.97
2022-08-18T10:02:32.225Z,33.03
2022-08-18T10:07:43.672Z,30.23
2022-08-18T10:13:09.082Z,34.70
2022-08-18T10:18:25.961Z,33.50
2022-08-18T10:23:54.559Z,32.57
2022-08-18T10:29:32.299Z,28.93
2022-08-18T10:34:52.992Z,32.42
2022-08-18T10:40:03.735Z,29.08
2022-08-18T10:45:24.678Z,29.23
2022-08-18T10:50:28.896Z,26.53
2022-08-18T10:55:48.607Z,25.27
2022-08-18T11:01:28.584Z,25.20
2022-08-18T11:06:42.899Z,26.27
2022-08-18T11:11:53.445Z,25.67
2022-08-18T11:17:12.130Z,30.85
2022-08-18T11:22:31.375Z,27.52
2022-08-18T11:27:35.779Z,27.83
2022-08-18T11:32:42.704Z,26.55
2022-08-18T11:37:57.760Z,28.80
2022-08-18T11:43:16.671Z,24.35
2022-08-18T11:48:35.937Z,23.15
2022-08-18T11:53:58.575Z,25.48
2022-08-18T11:59:53.990Z,19.67
2022-08-18T12:04:53.409Z,21.45
2022-08-18T12:10:26.260Z,19.02
2022-08-18T12:15:47.338Z,19.50
2022-08-18T12:20:49.512Z,18.85
2022-08-18T12:25:52.843Z,16.33
2022-08-18T12:30:56.046Z,19.33
2022-08-18T12:35:59.181Z,19.13
2022-08-18T12:41:01.605Z,15.85
2022-08-18T12:46:04.751Z,16.95
2022-08-18T12:51:07.371Z,17.48
2022-08-18T12:56:20.751Z,16.13
2022-08-18T13:01:23.563Z,16.17
2022-08-18T13:06:27.541Z,17.50
2022-08-18T13:11:29.220Z,16.38
2022-08-18T13:16:38.798Z,15.18
2022-08-18T13:21:42.931Z,13.25
2022-08-18T13:26:46.597Z,12.05
2022-08-18T13:31:55.819Z,12.50
2022-08-18T13:36:59.013Z,12.75
2022-08-18T13:42:01.484Z,13.02
2022-08-18T13:47:29.281Z,13.48
2022-08-18T13:52:36.230Z,12.30
2022-08-18T14:03:47.127Z,13.07
2022-08-18T14:08:52.803Z,11.82
2022-08-18T14:14:02.301Z,13.02
2022-08-18T14:19:24.114Z,10.65
2022-08-18T14:24:52.848Z,12.48
2022-08-18T14:29:55.125Z,10.68
